sensor_id;sensor_type;location;lat;lon;timestamp;pressure;altitude;pressure_sealevel;temperature;humidity
66381;BME280;53177;52.648;1.214;2023-04-04T00:02:13;102572.84;;;2.27;83.73
66381;BME280;53177;52.648;1.214;2023-04-04T00:04:38;102573.34;;;2.19;84.28
66381;BME280;53177;52.648;1.214;2023-04-04T00:07:04;102576.97;;;2.22;84.36
66381;BME280;53177;52.648;1.214;2023-04-04T00:09:29;102579.09;;;2.10;84.63
66381;BME280;53177;52.648;1.214;2023-04-04T00:11:55;102569.09;;;2.00;84.81
66381;BME280;53177;52.648;1.214;2023-04-04T00:14:20;102577.06;;;2.03;84.71
66381;BME280;53177;52.648;1.214;2023-04-04T00:16:45;102574.63;;;1.87;85.62
66381;BME280;53177;52.648;1.214;2023-04-04T00:19:11;102576.75;;;1.95;85.47
66381;BME280;53177;52.648;1.214;2023-04-04T00:21:42;102573.22;;;2.16;84.52
66381;BME280;53177;52.648;1.214;2023-04-04T00:24:08;102570.50;;;1.92;85.21
66381;BME280;53177;52.648;1.214;2023-04-04T00:26:33;102573.56;;;2.03;84.49
66381;BME280;53177;52.648;1.214;2023-04-04T00:28:58;102582.13;;;1.79;85.77
66381;BME280;53177;52.648;1.214;2023-04-04T00:31:25;102578.75;;;1.82;85.91
66381;BME280;53177;52.648;1.214;2023-04-04T00:33:51;102575.72;;;1.92;85.01
66381;BME280;53177;52.648;1.214;2023-04-04T00:36:16;102575.66;;;1.70;86.31
66381;BME280;53177;52.648;1.214;2023-04-04T00:38:43;102580.63;;;1.84;86.10
66381;BME280;53177;52.648;1.214;2023-04-04T00:41:10;102580.41;;;1.80;85.89
66381;BME280;53177;52.648;1.214;2023-04-04T00:43:35;102571.78;;;1.81;86.13
66381;BME280;53177;52.648;1.214;2023-04-04T00:46:01;102580.56;;;1.64;86.28
66381;BME280;53177;52.648;1.214;2023-04-04T00:48:27;102581.94;;;1.56;86.74
66381;BME280;53177;52.648;1.214;2023-04-04T00:50:52;102571.81;;;1.42;87.46
66381;BME280;53177;52.648;1.214;2023-04-04T00:53:17;102576.97;;;1.41;88.04
66381;BME280;53177;52.648;1.214;2023-04-04T00:55:43;102569.13;;;1.41;88.08
66381;BME280;53177;52.648;1.214;2023-04-04T00:58:09;102562.63;;;1.51;87.55
66381;BME280;53177;52.648;1.214;2023-04-04T01:00:35;102559.06;;;1.48;88.12
66381;BME280;53177;52.648;1.214;2023-04-04T01:03:01;102559.59;;;1.61;87.43
66381;BME280;53177;52.648;1.214;2023-04-04T01:05:28;102562.03;;;1.77;87.37
66381;BME280;53177;52.648;1.214;2023-04-04T01:07:55;102565.66;;;1.80;86.87
66381;BME280;53177;52.648;1.214;2023-04-04T01:10:21;102566.97;;;1.71;87.34
66381;BME280;53177;52.648;1.214;2023-04-04T01:12:47;102571.16;;;1.67;87.52
66381;BME280;53177;52.648;1.214;2023-04-04T01:15:12;102563.78;;;1.57;87.79
66381;BME280;53177;52.648;1.214;2023-04-04T01:17:39;102564.47;;;1.53;88.11
66381;BME280;53177;52.648;1.214;2023-04-04T01:20:06;102562.31;;;1.43;88.84
66381;BME280;53177;52.648;1.214;2023-04-04T01:22:36;102571.91;;;1.44;88.87
66381;BME280;53177;52.648;1.214;2023-04-04T01:25:04;102577.03;;;1.42;89.03
66381;BME280;53177;52.648;1.214;2023-04-04T01:27:30;102576.03;;;1.39;89.14
66381;BME280;53177;52.648;1.214;2023-04-04T01:29:55;102582.94;;;1.38;89.34
66381;BME280;53177;52.648;1.214;2023-04-04T01:32:35;102578.75;;;1.42;89.32
66381;BME280;53177;52.648;1.214;2023-04-04T01:35:24;102572.16;;;1.31;89.19
66381;BME280;53177;52.648;1.214;2023-04-04T01:40:51;102571.47;;;1.16;89.85
66381;BME280;53177;52.648;1.214;2023-04-04T01:43:18;102578.22;;;1.11;90.00
66381;BME280;53177;52.648;1.214;2023-04-04T01:45:44;102574.03;;;1.14;89.94
66381;BME280;53177;52.648;1.214;2023-04-04T01:48:10;102574.56;;;1.26;89.43
66381;BME280;53177;52.648;1.214;2023-04-04T01:50:35;102574.28;;;1.01;89.66
66381;BME280;53177;52.648;1.214;2023-04-04T01:53:01;102568.88;;;0.96;90.36
66381;BME280;53177;52.648;1.214;2023-04-04T01:55:26;102569.50;;;1.10;90.36
66381;BME280;53177;52.648;1.214;2023-04-04T01:57:52;102556.00;;;1.00;90.48
66381;BME280;53177;52.648;1.214;2023-04-04T02:00:18;102556.81;;;0.98;90.90
66381;BME280;53177;52.648;1.214;2023-04-04T02:02:44;102562.06;;;1.00;90.84
66381;BME280;53177;52.648;1.214;2023-04-04T02:05:09;102556.41;;;1.09;91.00
66381;BME280;53177;52.648;1.214;2023-04-04T02:07:35;102555.84;;;1.16;90.76
66381;BME280;53177;52.648;1.214;2023-04-04T02:10:00;102553.38;;;1.19;90.84
66381;BME280;53177;52.648;1.214;2023-04-04T02:12:25;102544.84;;;1.21;90.58
66381;BME280;53177;52.648;1.214;2023-04-04T02:14:51;102548.94;;;1.35;90.41
66381;BME280;53177;52.648;1.214;2023-04-04T02:17:16;102549.91;;;1.77;88.81
66381;BME280;53177;52.648;1.214;2023-04-04T02:19:42;102547.91;;;1.92;87.78
66381;BME280;53177;52.648;1.214;2023-04-04T02:22:07;102552.31;;;1.73;87.61
66381;BME280;53177;52.648;1.214;2023-04-04T02:24:33;102550.34;;;1.48;88.33
66381;BME280;53177;52.648;1.214;2023-04-04T02:26:58;102553.66;;;1.25;89.54
66381;BME280;53177;52.648;1.214;2023-04-04T02:29:23;102554.81;;;1.12;90.34
66381;BME280;53177;52.648;1.214;2023-04-04T02:31:49;102554.63;;;1.08;90.84
66381;BME280;53177;52.648;1.214;2023-04-04T02:34:14;102550.03;;;1.02;91.33
66381;BME280;53177;52.648;1.214;2023-04-04T02:36:39;102549.06;;;1.00;91.41
66381;BME280;53177;52.648;1.214;2023-04-04T02:39:05;102550.94;;;1.03;91.29
66381;BME280;53177;52.648;1.214;2023-04-04T02:41:30;102548.59;;;1.09;91.32
66381;BME280;53177;52.648;1.214;2023-04-04T02:43:56;102555.28;;;1.04;91.57
66381;BME280;53177;52.648;1.214;2023-04-04T02:46:21;102549.22;;;1.03;91.61
66381;BME280;53177;52.648;1.214;2023-04-04T02:48:47;102544.97;;;1.05;91.17
66381;BME280;53177;52.648;1.214;2023-04-04T02:51:12;102550.16;;;1.05;91.57
66381;BME280;53177;52.648;1.214;2023-04-04T02:53:38;102550.25;;;1.07;91.27
66381;BME280;53177;52.648;1.214;2023-04-04T02:56:03;102554.63;;;1.08;90.79
66381;BME280;53177;52.648;1.214;2023-04-04T02:58:32;102549.13;;;1.02;91.40
66381;BME280;53177;52.648;1.214;2023-04-04T03:00:58;102551.47;;;0.95;91.84
66381;BME280;53177;52.648;1.214;2023-04-04T03:03:23;102557.63;;;0.97;91.67
66381;BME280;53177;52.648;1.214;2023-04-04T03:05:49;102557.41;;;0.93;91.58
66381;BME280;53177;52.648;1.214;2023-04-04T03:08:14;102549.13;;;0.82;91.91
66381;BME280;53177;52.648;1.214;2023-04-04T03:10:40;102549.38;;;0.69;92.19
66381;BME280;53177;52.648;1.214;2023-04-04T03:13:06;102549.69;;;0.58;92.48
66381;BME280;53177;52.648;1.214;2023-04-04T03:15:31;102547.50;;;0.47;93.17
66381;BME280;53177;52.648;1.214;2023-04-04T03:17:57;102547.31;;;0.44;93.35
66381;BME280;53177;52.648;1.214;2023-04-04T03:20:24;102551.72;;;0.45;93.36
66381;BME280;53177;52.648;1.214;2023-04-04T03:22:50;102555.84;;;0.60;93.10
66381;BME280;53177;52.648;1.214;2023-04-04T03:25:16;102552.53;;;0.62;93.22
66381;BME280;53177;52.648;1.214;2023-04-04T03:27:41;102545.59;;;0.63;92.96
66381;BME280;53177;52.648;1.214;2023-04-04T03:30:07;102545.38;;;0.58;92.79
66381;BME280;53177;52.648;1.214;2023-04-04T03:32:34;102548.41;;;0.67;92.99
66381;BME280;53177;52.648;1.214;2023-04-04T03:34:59;102544.41;;;0.56;92.57
66381;BME280;53177;52.648;1.214;2023-04-04T03:37:25;102549.47;;;0.53;93.00
66381;BME280;53177;52.648;1.214;2023-04-04T03:39:50;102537.75;;;0.43;93.46
66381;BME280;53177;52.648;1.214;2023-04-04T03:42:16;102534.53;;;0.49;93.10
66381;BME280;53177;52.648;1.214;2023-04-04T03:44:41;102534.00;;;0.56;93.48
66381;BME280;53177;52.648;1.214;2023-04-04T03:47:07;102540.31;;;0.61;92.74
66381;BME280;53177;52.648;1.214;2023-04-04T03:49:35;102532.44;;;0.60;92.97
66381;BME280;53177;52.648;1.214;2023-04-04T03:52:00;102533.53;;;0.65;92.89
66381;BME280;53177;52.648;1.214;2023-04-04T03:54:29;102534.78;;;0.73;92.84
66381;BME280;53177;52.648;1.214;2023-04-04T03:56:55;102534.19;;;1.17;91.67
66381;BME280;53177;52.648;1.214;2023-04-04T03:59:21;102534.81;;;0.92;91.67
66381;BME280;53177;52.648;1.214;2023-04-04T04:01:47;102528.69;;;0.72;92.28
66381;BME280;53177;52.648;1.214;2023-04-04T04:04:12;102530.84;;;0.63;92.77
66381;BME280;53177;52.648;1.214;2023-04-04T04:06:37;102531.16;;;0.69;92.54
66381;BME280;53177;52.648;1.214;2023-04-04T04:09:03;102533.94;;;0.55;93.06
66381;BME280;53177;52.648;1.214;2023-04-04T04:11:28;102532.06;;;0.52;93.78
66381;BME280;53177;52.648;1.214;2023-04-04T04:13:54;102533.34;;;0.42;94.00
66381;BME280;53177;52.648;1.214;2023-04-04T04:16:20;102529.72;;;0.39;93.98
66381;BME280;53177;52.648;1.214;2023-04-04T04:18:48;102525.31;;;0.38;94.18
66381;BME280;53177;52.648;1.214;2023-04-04T04:21:14;102529.34;;;0.31;94.31
66381;BME280;53177;52.648;1.214;2023-04-04T04:23:39;102533.44;;;0.26;94.36
66381;BME280;53177;52.648;1.214;2023-04-04T04:26:05;102532.19;;;0.36;94.03
66381;BME280;53177;52.648;1.214;2023-04-04T04:28:30;102535.06;;;0.42;93.61
66381;BME280;53177;52.648;1.214;2023-04-04T04:31:03;102529.75;;;0.21;93.95
66381;BME280;53177;52.648;1.214;2023-04-04T04:33:28;102530.63;;;0.04;94.59
66381;BME280;53177;52.648;1.214;2023-04-04T04:36:01;102528.72;;;0.00;95.07
66381;BME280;53177;52.648;1.214;2023-04-04T04:38:27;102528.63;;;0.16;95.29
66381;BME280;53177;52.648;1.214;2023-04-04T04:40:53;102532.25;;;0.20;94.68
66381;BME280;53177;52.648;1.214;2023-04-04T04:43:19;102516.72;;;0.39;93.30
66381;BME280;53177;52.648;1.214;2023-04-04T04:45:44;102515.44;;;0.31;93.67
66381;BME280;53177;52.648;1.214;2023-04-04T04:48:10;102527.56;;;0.13;94.38
66381;BME280;53177;52.648;1.214;2023-04-04T04:50:35;102519.69;;;0.46;93.37
66381;BME280;53177;52.648;1.214;2023-04-04T04:53:00;102520.63;;;0.48;91.91
66381;BME280;53177;52.648;1.214;2023-04-04T04:55:27;102521.63;;;0.15;93.17
66381;BME280;53177;52.648;1.214;2023-04-04T04:57:55;102526.16;;;0.02;93.78
66381;BME280;53177;52.648;1.214;2023-04-04T05:00:23;102533.22;;;-0.14;94.77
66381;BME280;53177;52.648;1.214;2023-04-04T05:02:53;102532.31;;;-0.14;95.26
66381;BME280;53177;52.648;1.214;2023-04-04T05:05:22;102534.94;;;0.04;94.39
66381;BME280;53177;52.648;1.214;2023-04-04T05:07:49;102531.44;;;0.03;93.95
66381;BME280;53177;52.648;1.214;2023-04-04T05:10:17;102535.59;;;0.17;93.68
66381;BME280;53177;52.648;1.214;2023-04-04T05:12:46;102531.88;;;0.12;93.53
66381;BME280;53177;52.648;1.214;2023-04-04T05:15:12;102546.34;;;-0.11;94.04
66381;BME280;53177;52.648;1.214;2023-04-04T05:17:39;102540.38;;;-0.26;94.74
66381;BME280;53177;52.648;1.214;2023-04-04T05:20:08;102545.00;;;-0.38;96.22
66381;BME280;53177;52.648;1.214;2023-04-04T05:22:35;102550.25;;;-0.36;95.80
66381;BME280;53177;52.648;1.214;2023-04-04T05:25:00;102552.03;;;-0.35;96.27
66381;BME280;53177;52.648;1.214;2023-04-04T05:27:26;102551.78;;;-0.40;96.49
66381;BME280;53177;52.648;1.214;2023-04-04T05:29:51;102551.78;;;-0.40;96.65
66381;BME280;53177;52.648;1.214;2023-04-04T05:32:17;102557.59;;;-0.45;96.88
66381;BME280;53177;52.648;1.214;2023-04-04T05:34:42;102555.13;;;-0.26;96.43
66381;BME280;53177;52.648;1.214;2023-04-04T05:37:08;102556.81;;;-0.27;96.42
66381;BME280;53177;52.648;1.214;2023-04-04T05:39:33;102559.31;;;-0.28;96.49
66381;BME280;53177;52.648;1.214;2023-04-04T05:41:59;102559.31;;;-0.28;96.52
66381;BME280;53177;52.648;1.214;2023-04-04T05:44:24;102554.22;;;-0.27;96.74
66381;BME280;53177;52.648;1.214;2023-04-04T05:46:49;102562.16;;;-0.24;96.75
66381;BME280;53177;52.648;1.214;2023-04-04T05:49:15;102555.41;;;-0.20;97.01
66381;BME280;53177;52.648;1.214;2023-04-04T05:51:41;102552.97;;;-0.17;97.15
66381;BME280;53177;52.648;1.214;2023-04-04T05:54:06;102554.25;;;-0.09;96.87
66381;BME280;53177;52.648;1.214;2023-04-04T05:56:32;102550.09;;;0.30;95.93
66381;BME280;53177;52.648;1.214;2023-04-04T05:58:57;102539.47;;;0.25;95.14
66381;BME280;53177;52.648;1.214;2023-04-04T06:01:23;102542.59;;;0.18;95.41
66381;BME280;53177;52.648;1.214;2023-04-04T06:03:49;102535.31;;;0.29;95.53
66381;BME280;53177;52.648;1.214;2023-04-04T06:06:15;102546.44;;;0.26;95.37
66381;BME280;53177;52.648;1.214;2023-04-04T06:08:40;102541.22;;;0.26;95.60
66381;BME280;53177;52.648;1.214;2023-04-04T06:11:05;102545.19;;;0.36;95.72
66381;BME280;53177;52.648;1.214;2023-04-04T06:13:31;102549.72;;;0.40;95.41
66381;BME280;53177;52.648;1.214;2023-04-04T06:15:56;102546.47;;;0.44;95.57
66381;BME280;53177;52.648;1.214;2023-04-04T06:18:21;102548.66;;;0.54;94.94
66381;BME280;53177;52.648;1.214;2023-04-04T06:20:47;102550.66;;;0.60;94.74
66381;BME280;53177;52.648;1.214;2023-04-04T06:23:12;102551.22;;;0.72;94.42
66381;BME280;53177;52.648;1.214;2023-04-04T06:25:38;102555.97;;;0.80;94.11
66381;BME280;53177;52.648;1.214;2023-04-04T06:28:03;102555.09;;;0.80;94.23
66381;BME280;53177;52.648;1.214;2023-04-04T06:30:29;102557.72;;;0.81;93.61
66381;BME280;53177;52.648;1.214;2023-04-04T06:32:55;102551.75;;;1.02;93.38
66381;BME280;53177;52.648;1.214;2023-04-04T06:35:21;102557.09;;;1.05;92.86
66381;BME280;53177;52.648;1.214;2023-04-04T06:37:46;102562.06;;;1.00;93.12
66381;BME280;53177;52.648;1.214;2023-04-04T06:40:14;102558.53;;;1.17;92.90
66381;BME280;53177;52.648;1.214;2023-04-04T06:42:47;102558.31;;;1.13;93.23
66381;BME280;53177;52.648;1.214;2023-04-04T06:45:13;102567.81;;;1.11;93.12
66381;BME280;53177;52.648;1.214;2023-04-04T06:47:38;102566.50;;;1.20;92.50
66381;BME280;53177;52.648;1.214;2023-04-04T06:50:04;102565.25;;;1.31;92.15
66381;BME280;53177;52.648;1.214;2023-04-04T06:52:30;102564.25;;;1.48;91.84
66381;BME280;53177;52.648;1.214;2023-04-04T06:54:55;102558.94;;;2.06;91.58
66381;BME280;53177;52.648;1.214;2023-04-04T06:57:21;102561.00;;;2.35;90.56
66381;BME280;53177;52.648;1.214;2023-04-04T06:59:46;102557.22;;;2.94;89.85
66381;BME280;53177;52.648;1.214;2023-04-04T07:02:12;102548.38;;;3.38;88.02
66381;BME280;53177;52.648;1.214;2023-04-04T07:04:37;102546.22;;;4.01;84.54
66381;BME280;53177;52.648;1.214;2023-04-04T07:07:03;102538.34;;;4.54;81.00
66381;BME280;53177;52.648;1.214;2023-04-04T07:09:29;102536.97;;;4.38;78.69
66381;BME280;53177;52.648;1.214;2023-04-04T07:11:54;102535.13;;;4.93;78.51
66381;BME280;53177;52.648;1.214;2023-04-04T07:14:20;102539.91;;;4.76;75.45
66381;BME280;53177;52.648;1.214;2023-04-04T07:16:49;102542.56;;;5.07;76.00
66381;BME280;53177;52.648;1.214;2023-04-04T07:19:14;102538.13;;;5.36;75.79
66381;BME280;53177;52.648;1.214;2023-04-04T07:21:41;102527.84;;;5.75;73.85
66381;BME280;53177;52.648;1.214;2023-04-04T07:24:06;102527.69;;;6.02;72.53
66381;BME280;53177;52.648;1.214;2023-04-04T07:26:32;102526.53;;;5.92;72.82
66381;BME280;53177;52.648;1.214;2023-04-04T07:28:59;102522.13;;;5.90;72.60
66381;BME280;53177;52.648;1.214;2023-04-04T07:31:24;102524.97;;;6.34;72.03
66381;BME280;53177;52.648;1.214;2023-04-04T07:33:50;102521.03;;;6.16;71.71
66381;BME280;53177;52.648;1.214;2023-04-04T07:36:17;102518.69;;;6.28;71.30
66381;BME280;53177;52.648;1.214;2023-04-04T07:38:43;102522.41;;;6.38;70.66
66381;BME280;53177;52.648;1.214;2023-04-04T07:41:08;102516.84;;;6.24;71.63
66381;BME280;53177;52.648;1.214;2023-04-04T07:43:36;102518.16;;;6.43;70.56
66381;BME280;53177;52.648;1.214;2023-04-04T07:46:01;102515.91;;;5.86;71.89
66381;BME280;53177;52.648;1.214;2023-04-04T07:48:27;102519.22;;;6.51;69.73
66381;BME280;53177;52.648;1.214;2023-04-04T07:50:52;102518.44;;;6.55;70.14
66381;BME280;53177;52.648;1.214;2023-04-04T07:53:17;102521.59;;;6.40;68.83
66381;BME280;53177;52.648;1.214;2023-04-04T07:55:43;102522.19;;;6.28;69.91
66381;BME280;53177;52.648;1.214;2023-04-04T07:58:08;102520.41;;;5.92;70.89
66381;BME280;53177;52.648;1.214;2023-04-04T08:00:33;102523.53;;;6.11;71.86
66381;BME280;53177;52.648;1.214;2023-04-04T08:02:59;102518.00;;;6.35;71.01
66381;BME280;53177;52.648;1.214;2023-04-04T08:05:26;102517.69;;;7.01;68.35
66381;BME280;53177;52.648;1.214;2023-04-04T08:07:52;102522.00;;;6.97;68.58
66381;BME280;53177;52.648;1.214;2023-04-04T08:10:18;102517.09;;;6.72;67.54
66381;BME280;53177;52.648;1.214;2023-04-04T08:12:46;102517.22;;;7.20;67.60
66381;BME280;53177;52.648;1.214;2023-04-04T08:15:12;102514.28;;;7.05;66.41
66381;BME280;53177;52.648;1.214;2023-04-04T08:17:37;102505.69;;;7.15;64.78
66381;BME280;53177;52.648;1.214;2023-04-04T08:20:03;102507.44;;;7.14;65.26
66381;BME280;53177;52.648;1.214;2023-04-04T08:22:29;102506.53;;;7.12;64.50
66381;BME280;53177;52.648;1.214;2023-04-04T08:24:55;102508.53;;;7.25;65.02
66381;BME280;53177;52.648;1.214;2023-04-04T08:27:20;102510.53;;;7.37;64.51
66381;BME280;53177;52.648;1.214;2023-04-04T08:29:46;102517.38;;;7.29;64.69
66381;BME280;53177;52.648;1.214;2023-04-04T08:32:12;102507.59;;;7.22;63.67
66381;BME280;53177;52.648;1.214;2023-04-04T08:34:38;102513.91;;;7.30;63.72
66381;BME280;53177;52.648;1.214;2023-04-04T08:37:04;102517.06;;;7.57;63.70
66381;BME280;53177;52.648;1.214;2023-04-04T08:39:30;102514.81;;;7.32;64.09
66381;BME280;53177;52.648;1.214;2023-04-04T08:42:01;102511.41;;;7.38;62.96
66381;BME280;53177;52.648;1.214;2023-04-04T08:44:27;102513.81;;;7.72;62.47
66381;BME280;53177;52.648;1.214;2023-04-04T08:46:54;102506.25;;;7.92;61.54
66381;BME280;53177;52.648;1.214;2023-04-04T08:49:20;102513.06;;;7.80;61.43
66381;BME280;53177;52.648;1.214;2023-04-04T08:51:48;102514.09;;;7.89;61.85
66381;BME280;53177;52.648;1.214;2023-04-04T08:54:15;102516.00;;;7.97;61.59
66381;BME280;53177;52.648;1.214;2023-04-04T08:56:41;102520.00;;;8.28;60.93
66381;BME280;53177;52.648;1.214;2023-04-04T08:59:06;102512.88;;;8.21;61.56
66381;BME280;53177;52.648;1.214;2023-04-04T09:01:34;102513.28;;;8.45;60.45
66381;BME280;53177;52.648;1.214;2023-04-04T09:04:00;102513.16;;;8.36;59.64
66381;BME280;53177;52.648;1.214;2023-04-04T09:06:26;102504.09;;;8.22;60.05
66381;BME280;53177;52.648;1.214;2023-04-04T09:08:52;102503.75;;;8.53;61.62
66381;BME280;53177;52.648;1.214;2023-04-04T09:11:22;102501.00;;;8.47;60.74
66381;BME280;53177;52.648;1.214;2023-04-04T09:13:49;102501.00;;;8.47;61.08
66381;BME280;53177;52.648;1.214;2023-04-04T09:16:15;102494.28;;;8.69;61.14
66381;BME280;53177;52.648;1.214;2023-04-04T09:18:41;102496.84;;;8.63;58.03
66381;BME280;53177;52.648;1.214;2023-04-04T09:21:11;102495.19;;;8.71;60.25
66381;BME280;53177;52.648;1.214;2023-04-04T09:23:37;102498.00;;;8.85;60.49
66381;BME280;53177;52.648;1.214;2023-04-04T09:26:03;102498.06;;;8.89;60.98
66381;BME280;53177;52.648;1.214;2023-04-04T09:28:29;102485.81;;;8.93;59.68
66381;BME280;53177;52.648;1.214;2023-04-04T09:30:54;102482.28;;;8.92;59.29
66381;BME280;53177;52.648;1.214;2023-04-04T09:33:20;102489.34;;;8.93;59.54
66381;BME280;53177;52.648;1.214;2023-04-04T09:35:58;102486.78;;;9.02;58.21
66381;BME280;53177;52.648;1.214;2023-04-04T09:38:27;102482.78;;;9.35;60.56
66381;BME280;53177;52.648;1.214;2023-04-04T09:40:54;102481.16;;;9.49;58.28
66381;BME280;53177;52.648;1.214;2023-04-04T09:43:21;102491.50;;;9.29;58.59
66381;BME280;53177;52.648;1.214;2023-04-04T09:45:47;102473.09;;;9.34;58.94
66381;BME280;53177;52.648;1.214;2023-04-04T09:48:34;102478.44;;;9.43;58.22
66381;BME280;53177;52.648;1.214;2023-04-04T09:51:04;102471.41;;;9.42;59.02
66381;BME280;53177;52.648;1.214;2023-04-04T09:53:33;102474.22;;;9.61;59.33
66381;BME280;53177;52.648;1.214;2023-04-04T09:56:00;102471.78;;;9.81;58.96
66381;BME280;53177;52.648;1.214;2023-04-04T09:58:28;102471.69;;;9.72;55.01
66381;BME280;53177;52.648;1.214;2023-04-04T10:00:56;102464.88;;;9.97;58.85
66381;BME280;53177;52.648;1.214;2023-04-04T10:03:23;102463.13;;;10.00;54.35
66381;BME280;53177;52.648;1.214;2023-04-04T10:06:08;102462.09;;;9.78;56.20
66381;BME280;53177;52.648;1.214;2023-04-04T10:08:39;102465.94;;;10.20;52.87
66381;BME280;53177;52.648;1.214;2023-04-04T10:11:08;102464.28;;;10.34;52.39
66381;BME280;53177;52.648;1.214;2023-04-04T10:13:35;102458.97;;;10.33;55.28
66381;BME280;53177;52.648;1.214;2023-04-04T10:16:02;102463.22;;;10.11;52.30
66381;BME280;53177;52.648;1.214;2023-04-04T10:18:32;102459.09;;;10.49;57.13
66381;BME280;53177;52.648;1.214;2023-04-04T10:21:00;102455.69;;;10.71;55.11
66381;BME280;53177;52.648;1.214;2023-04-04T10:23:29;102456.59;;;10.81;56.75
66381;BME280;53177;52.648;1.214;2023-04-04T10:25:56;102462.75;;;10.77;54.61
66381;BME280;53177;52.648;1.214;2023-04-04T10:28:22;102453.97;;;10.83;54.96
66381;BME280;53177;52.648;1.214;2023-04-04T10:30:50;102446.94;;;10.92;55.02
66381;BME280;53177;52.648;1.214;2023-04-04T10:36:13;102448.66;;;10.90;54.19
66381;BME280;53177;52.648;1.214;2023-04-04T10:38:49;102445.22;;;11.03;54.47
66381;BME280;53177;52.648;1.214;2023-04-04T10:41:16;102429.34;;;11.08;51.38
66381;BME280;53177;52.648;1.214;2023-04-04T10:43:44;102433.75;;;11.07;51.05
66381;BME280;53177;52.648;1.214;2023-04-04T10:46:14;102433.72;;;11.00;49.91
66381;BME280;53177;52.648;1.214;2023-04-04T10:48:41;102434.56;;;10.85;46.28
66381;BME280;53177;52.648;1.214;2023-04-04T10:51:10;102427.59;;;11.20;50.02
66381;BME280;53177;52.648;1.214;2023-04-04T10:53:37;102428.50;;;11.47;49.27
66381;BME280;53177;52.648;1.214;2023-04-04T10:56:04;102431.19;;;11.63;52.13
66381;BME280;53177;52.648;1.214;2023-04-04T10:58:30;102425.84;;;11.39;51.32
66381;BME280;53177;52.648;1.214;2023-04-04T11:00:56;102420.53;;;11.27;51.78
66381;BME280;53177;52.648;1.214;2023-04-04T11:03:21;102432.13;;;11.75;58.61
66381;BME280;53177;52.648;1.214;2023-04-04T11:05:48;102415.28;;;11.62;55.00
66381;BME280;53177;52.648;1.214;2023-04-04T11:10:46;102401.13;;;11.64;53.47
66381;BME280;53177;52.648;1.214;2023-04-04T11:13:13;102399.38;;;11.47;47.93
66381;BME280;53177;52.648;1.214;2023-04-04T11:16:05;102398.50;;;11.90;55.79
66381;BME280;53177;52.648;1.214;2023-04-04T11:18:44;102396.75;;;11.89;47.16
66381;BME280;53177;52.648;1.214;2023-04-04T11:21:18;102396.75;;;11.73;48.40
66381;BME280;53177;52.648;1.214;2023-04-04T11:26:12;102393.19;;;11.54;49.40
66381;BME280;53177;52.648;1.214;2023-04-04T11:44:32;102397.44;;;12.56;54.30
66381;BME280;53177;52.648;1.214;2023-04-04T11:49:27;102403.75;;;12.24;55.05
66381;BME280;53177;52.648;1.214;2023-04-04T11:51:55;102401.06;;;12.37;49.01
66381;BME280;53177;52.648;1.214;2023-04-04T11:54:20;102403.72;;;12.34;51.47
66381;BME280;53177;52.648;1.214;2023-04-04T11:56:46;102400.22;;;12.26;44.60
66381;BME280;53177;52.648;1.214;2023-04-04T11:59:12;102396.72;;;12.09;47.11
66381;BME280;53177;52.648;1.214;2023-04-04T12:01:38;102399.34;;;12.13;44.90
66381;BME280;53177;52.648;1.214;2023-04-04T12:04:04;102395.72;;;12.48;49.82
66381;BME280;53177;52.648;1.214;2023-04-04T12:06:30;102382.47;;;12.45;48.86
66381;BME280;53177;52.648;1.214;2023-04-04T12:09:03;102386.88;;;12.49;49.76
66381;BME280;53177;52.648;1.214;2023-04-04T12:11:29;102389.53;;;12.52;50.47
66381;BME280;53177;52.648;1.214;2023-04-04T12:13:56;102377.91;;;12.77;49.62
66381;BME280;53177;52.648;1.214;2023-04-04T12:16:22;102380.56;;;12.74;46.87
66381;BME280;53177;52.648;1.214;2023-04-04T12:18:48;102371.78;;;12.63;46.30
66381;BME280;53177;52.648;1.214;2023-04-04T12:21:14;102373.66;;;12.32;47.24
66381;BME280;53177;52.648;1.214;2023-04-04T12:23:39;102376.31;;;12.35;48.53
66381;BME280;53177;52.648;1.214;2023-04-04T12:26:06;102364.81;;;12.36;50.20
66381;BME280;53177;52.648;1.214;2023-04-04T12:28:33;102369.13;;;12.61;52.46
66381;BME280;53177;52.648;1.214;2023-04-04T12:31:04;102366.56;;;12.39;49.06
66381;BME280;53177;52.648;1.214;2023-04-04T12:33:34;102370.09;;;12.39;44.69
66381;BME280;53177;52.648;1.214;2023-04-04T12:36:01;102372.69;;;12.54;51.23
66381;BME280;53177;52.648;1.214;2023-04-04T12:38:30;102367.22;;;12.89;52.92
66381;BME280;53177;52.648;1.214;2023-04-04T12:40:59;102367.19;;;12.97;48.60
66381;BME280;53177;52.648;1.214;2023-04-04T12:43:28;102367.16;;;13.00;46.43
66381;BME280;53177;52.648;1.214;2023-04-04T12:45:56;102374.31;;;12.89;45.48
66381;BME280;53177;52.648;1.214;2023-04-04T12:48:26;102375.50;;;12.15;53.68
66381;BME280;53177;52.648;1.214;2023-04-04T12:50:56;102372.53;;;12.86;52.88
66381;BME280;53177;52.648;1.214;2023-04-04T12:53:25;102371.66;;;12.89;51.66
66381;BME280;53177;52.648;1.214;2023-04-04T12:55:52;102362.88;;;12.75;51.96
66381;BME280;53177;52.648;1.214;2023-04-04T12:58:23;102363.72;;;12.81;45.68
66381;BME280;53177;52.648;1.214;2023-04-04T13:00:51;102362.59;;;13.20;51.31
66381;BME280;53177;52.648;1.214;2023-04-04T13:03:19;102356.56;;;12.97;45.75
66381;BME280;53177;52.648;1.214;2023-04-04T13:05:47;102353.75;;;13.23;55.71
66381;BME280;53177;52.648;1.214;2023-04-04T13:08:13;102354.63;;;13.20;46.59
66381;BME280;53177;52.648;1.214;2023-04-04T13:10:55;102349.19;;;13.40;48.17
66381;BME280;53177;52.648;1.214;2023-04-04T13:13:34;102354.50;;;13.40;51.30
66381;BME280;53177;52.648;1.214;2023-04-04T13:16:01;102350.13;;;13.33;45.18
66381;BME280;53177;52.648;1.214;2023-04-04T13:18:33;102354.38;;;13.55;52.56
66381;BME280;53177;52.648;1.214;2023-04-04T13:20:59;102340.19;;;13.53;51.28
66381;BME280;53177;52.648;1.214;2023-04-04T13:23:25;102342.22;;;13.25;47.82
66381;BME280;53177;52.648;1.214;2023-04-04T13:25:50;102335.88;;;13.38;48.12